Time;durP1;ratioP1;P1;durP2;ratioP2;P2;SDS_P1;SDS_P2;PMS_P1;PMS_P2;Temp;Humidity;BMP_temperature;BMP_pressure;BME280_temperature;BME280_humidity;BME280_pressure;Samples;Min_cycle;Max_cycle;Signal;HPM_P1;HPM_P2
2023/08/24 00:00:22;;;;;;;7.10;4.67;;;20.70;99.90;;;;;;5036859;28;20472;-58
2023/08/24 00:02:49;;;;;;;6.97;4.67;;;20.70;99.90;;;;;;5039123;28;20856;-57
2023/08/24 00:05:16;;;;;;;9.97;5.10;;;20.70;99.90;;;;;;5042244;28;20474;-60
2023/08/24 00:07:43;;;;;;;6.30;5.03;;;20.60;99.90;;;;;;5036691;28;20495;-59
2023/08/24 00:10:12;;;;;;;5.80;3.97;;;20.70;99.90;;;;;;5036351;28;20523;-61
2023/08/24 00:12:39;;;;;;;5.17;4.33;;;20.60;99.90;;;;;;5037051;28;20797;-61
2023/08/24 00:15:10;;;;;;;4.37;3.97;;;20.60;99.90;;;;;;5037372;28;20479;-61
2023/08/24 00:17:38;;;;;;;5.90;4.10;;;20.50;99.90;;;;;;5039439;28;20835;-61
2023/08/24 00:20:10;;;;;;;4.83;4.10;;;20.50;99.90;;;;;;5043020;28;20479;-58
2023/08/24 00:22:39;;;;;;;8.20;4.10;;;20.50;99.90;;;;;;5036306;28;20961;-60
2023/08/24 00:25:07;;;;;;;12.90;4.40;;;20.50;99.90;;;;;;5036383;28;20451;-56
2023/08/24 00:27:37;;;;;;;6.70;4.00;;;20.50;99.90;;;;;;5035083;28;20471;-57
2023/08/24 00:30:06;;;;;;;6.50;3.97;;;20.40;99.90;;;;;;5036350;28;20536;-55
2023/08/24 00:32:34;;;;;;;3.90;3.20;;;20.40;99.90;;;;;;5036109;28;20436;-60
2023/08/24 00:35:01;;;;;;;5.50;4.33;;;20.40;99.90;;;;;;5035343;28;20498;-59
2023/08/24 00:37:28;;;;;;;5.20;3.43;;;20.30;99.90;;;;;;5049109;28;20464;-57
2023/08/24 00:39:55;;;;;;;10.80;4.57;;;20.30;99.90;;;;;;5036411;28;20448;-61
2023/08/24 00:42:22;;;;;;;5.73;3.70;;;20.30;99.90;;;;;;5032406;28;20502;-60
2023/08/24 00:44:50;;;;;;;4.53;3.40;;;20.30;99.90;;;;;;5035985;28;20539;-61
2023/08/24 00:47:18;;;;;;;6.47;4.00;;;20.30;99.90;;;;;;5056562;28;20484;-54
2023/08/24 00:49:45;;;;;;;6.83;4.40;;;20.30;99.90;;;;;;5051188;28;20428;-60
2023/08/24 00:52:12;;;;;;;4.67;4.27;;;20.30;99.90;;;;;;5049838;28;20454;-59
2023/08/24 00:54:42;;;;;;;5.90;4.33;;;20.30;99.90;;;;;;5035520;28;20538;-56
2023/08/24 00:57:09;;;;;;;5.20;4.23;;;20.30;99.90;;;;;;5035896;28;20539;-61
2023/08/24 00:59:36;;;;;;;7.23;4.60;;;20.20;99.90;;;;;;5039623;28;20471;-60
2023/08/24 01:02:04;;;;;;;6.27;4.30;;;20.20;99.90;;;;;;5040762;28;20543;-58
2023/08/24 01:04:31;;;;;;;6.00;4.20;;;20.20;99.90;;;;;;5042245;28;20467;-60
2023/08/24 01:06:58;;;;;;;8.17;4.70;;;20.20;99.90;;;;;;5022162;28;20524;-62
2023/08/24 01:09:25;;;;;;;7.50;4.20;;;20.20;99.90;;;;;;5016163;28;20519;-58
2023/08/24 01:12:02;;;;;;;5.33;4.17;;;20.20;99.90;;;;;;5015968;28;20540;-60
2023/08/24 01:14:38;;;;;;;9.17;4.87;;;20.20;99.90;;;;;;5017915;28;20491;-58
2023/08/24 01:17:11;;;;;;;5.43;3.80;;;20.10;99.90;;;;;;5034974;28;20463;-54
2023/08/24 01:19:42;;;;;;;6.43;3.87;;;20.10;99.90;;;;;;5035890;28;20433;-62
2023/08/24 01:22:21;;;;;;;5.30;3.87;;;20.10;99.90;;;;;;5035788;28;20518;-59
2023/08/24 01:24:54;;;;;;;6.73;3.90;;;20.10;99.90;;;;;;5035872;28;20507;-59
2023/08/24 01:27:22;;;;;;;5.40;4.13;;;20.00;99.90;;;;;;5035545;28;20479;-60
2023/08/24 01:29:52;;;;;;;11.23;3.73;;;20.00;99.90;;;;;;5035548;28;20455;-61
2023/08/24 01:32:19;;;;;;;5.13;4.20;;;20.00;99.90;;;;;;5036302;28;20794;-59
2023/08/24 01:34:46;;;;;;;6.33;3.70;;;20.00;99.90;;;;;;5036350;28;20563;-59
2023/08/24 01:37:13;;;;;;;4.87;4.00;;;20.00;99.90;;;;;;5038204;28;20854;-58
2023/08/24 01:39:47;;;;;;;4.97;4.07;;;20.00;99.90;;;;;;5038803;28;20463;-60
2023/08/24 01:42:19;;;;;;;7.03;3.93;;;20.00;99.90;;;;;;5041188;28;20441;-57
2023/08/24 01:44:51;;;;;;;5.70;3.70;;;20.00;99.90;;;;;;5047084;28;20472;-55
2023/08/24 01:47:19;;;;;;;4.87;3.60;;;20.00;99.90;;;;;;5045682;28;20459;-60
2023/08/24 01:49:46;;;;;;;6.60;3.93;;;20.10;99.90;;;;;;5029895;28;20966;-60
2023/08/24 01:52:14;;;;;;;4.80;4.23;;;20.10;99.90;;;;;;5042034;28;20472;-61
2023/08/24 01:54:41;;;;;;;6.13;4.03;;;20.10;99.90;;;;;;5049564;28;20494;-59
2023/08/24 01:57:08;;;;;;;5.30;4.80;;;20.10;99.90;;;;;;5039531;28;20507;-61
2023/08/24 01:59:35;;;;;;;7.60;3.83;;;20.20;99.90;;;;;;5034588;28;20507;-59
2023/08/24 02:02:03;;;;;;;4.50;3.57;;;20.20;99.90;;;;;;5034627;28;20531;-59
2023/08/24 02:04:30;;;;;;;4.23;3.83;;;20.20;99.90;;;;;;5046261;28;20452;-59
2023/08/24 02:06:57;;;;;;;6.17;4.93;;;20.20;99.90;;;;;;5046438;28;20464;-60
2023/08/24 02:09:24;;;;;;;5.10;4.43;;;20.20;99.90;;;;;;5044076;28;20535;-59
2023/08/24 02:11:51;;;;;;;7.03;4.40;;;20.20;99.90;;;;;;5034021;28;20527;-59
2023/08/24 02:14:18;;;;;;;12.10;6.27;;;20.20;99.90;;;;;;5034021;28;20564;-59
2023/08/24 02:16:45;;;;;;;12.50;6.00;;;20.20;99.90;;;;;;5033999;28;20460;-58
2023/08/24 02:19:13;;;;;;;11.13;5.30;;;20.20;99.90;;;;;;5053529;28;20529;-57
2023/08/24 02:21:40;;;;;;;6.30;5.33;;;20.20;99.90;;;;;;5043036;28;20463;-57
2023/08/24 02:24:08;;;;;;;7.80;5.60;;;20.20;99.90;;;;;;5034184;28;20890;-59
2023/08/24 02:26:34;;;;;;;9.57;7.67;;;20.20;99.90;;;;;;5035115;28;20436;-59
2023/08/24 02:29:01;;;;;;;13.07;7.47;;;20.20;99.90;;;;;;5040351;28;20514;-60
2023/08/24 02:31:28;;;;;;;8.73;6.87;;;20.30;99.90;;;;;;5034966;28;20428;-58
2023/08/24 02:33:55;;;;;;;6.47;5.07;;;20.30;99.90;;;;;;5034502;28;20499;-58
2023/08/24 02:36:23;;;;;;;8.10;6.10;;;20.20;99.90;;;;;;5033704;28;21006;-59
2023/08/24 02:38:50;;;;;;;10.30;6.37;;;20.20;99.90;;;;;;5034243;28;20495;-58
2023/08/24 02:41:17;;;;;;;7.20;6.43;;;20.30;99.90;;;;;;5034292;28;20460;-60
2023/08/24 02:43:44;;;;;;;8.30;6.27;;;20.30;99.90;;;;;;5034374;28;20470;-59
2023/08/24 02:46:11;;;;;;;6.70;6.03;;;20.30;99.90;;;;;;5036558;28;20812;-59
2023/08/24 02:48:38;;;;;;;8.40;7.57;;;20.30;99.90;;;;;;5037523;28;21011;-55
2023/08/24 02:51:06;;;;;;;9.70;8.10;;;20.30;99.90;;;;;;5038679;28;20455;-56
2023/08/24 02:53:34;;;;;;;10.07;7.03;;;20.30;99.90;;;;;;5040510;28;20510;-58
2023/08/24 02:56:01;;;;;;;8.80;7.20;;;20.30;99.90;;;;;;5045898;28;20551;-59
2023/08/24 02:58:28;;;;;;;9.70;7.13;;;20.30;99.90;;;;;;5049672;28;20441;-59
2023/08/24 03:00:55;;;;;;;11.13;6.90;;;20.20;99.90;;;;;;5049592;28;20471;-55
2023/08/24 03:03:21;;;;;;;8.70;7.80;;;20.20;99.90;;;;;;5042414;28;20496;-58
2023/08/24 03:05:56;;;;;;;8.40;6.63;;;20.30;99.90;;;;;;5029798;28;20441;-60
2023/08/24 03:08:23;;;;;;;9.83;7.03;;;20.30;99.90;;;;;;5042749;28;20948;-59
2023/08/24 03:10:51;;;;;;;8.17;7.20;;;20.20;99.90;;;;;;5044948;28;20518;-60
2023/08/24 03:13:18;;;;;;;8.40;7.30;;;20.30;99.90;;;;;;5034045;28;20771;-59
2023/08/24 03:15:47;;;;;;;8.27;6.83;;;20.20;99.90;;;;;;5048774;28;20480;-50
2023/08/24 03:18:16;;;;;;;8.67;6.90;;;20.20;99.90;;;;;;5055431;28;20490;-60
2023/08/24 03:20:43;;;;;;;9.60;6.57;;;20.20;99.90;;;;;;5048674;28;21293;-58
2023/08/24 03:23:10;;;;;;;7.20;6.40;;;20.20;99.90;;;;;;5030712;28;20440;-51
2023/08/24 03:25:38;;;;;;;8.90;6.00;;;20.20;99.90;;;;;;5030274;28;20452;-61
2023/08/24 03:28:10;;;;;;;6.73;6.07;;;20.30;99.90;;;;;;5038128;28;20425;-57
2023/08/24 03:30:38;;;;;;;5.83;5.33;;;20.20;99.90;;;;;;5037491;28;20424;-49
2023/08/24 03:33:06;;;;;;;7.67;5.80;;;20.30;99.90;;;;;;5050416;28;20440;-59
2023/08/24 03:35:33;;;;;;;7.10;6.10;;;20.30;99.90;;;;;;5057724;28;20460;-54
2023/08/24 03:38:03;;;;;;;6.37;5.10;;;20.30;99.90;;;;;;5059490;28;20437;-57
2023/08/24 03:40:30;;;;;;;7.47;5.07;;;20.20;99.90;;;;;;5059019;28;20467;-58
2023/08/24 03:42:57;;;;;;;7.23;6.50;;;20.20;99.90;;;;;;5148259;22;20481;-56
2023/08/24 03:45:25;;;;;;;6.73;5.37;;;20.30;99.90;;;;;;5112944;28;20438;-58
2023/08/24 03:47:52;;;;;;;5.87;5.13;;;20.30;99.90;;;;;;5111454;28;20476;-59
2023/08/24 03:50:19;;;;;;;8.40;4.97;;;20.30;99.90;;;;;;5092413;28;20531;-60
2023/08/24 03:52:45;;;;;;;9.20;5.00;;;20.30;99.90;;;;;;5100572;28;20433;-60
2023/08/24 03:55:12;;;;;;;5.37;4.87;;;20.30;99.90;;;;;;5112554;28;20567;-59
2023/08/24 03:57:39;;;;;;;6.40;4.53;;;20.30;99.90;;;;;;5099778;28;20969;-60
2023/08/24 04:00:11;;;;;;;6.10;5.50;;;20.30;99.90;;;;;;5077381;28;20978;-60
2023/08/24 04:02:40;;;;;;;5.50;5.00;;;20.30;99.90;;;;;;5077041;28;20533;-58
2023/08/24 04:05:07;;;;;;;7.10;5.57;;;20.40;99.90;;;;;;5076977;28;20458;-58
2023/08/24 04:07:36;;;;;;;6.73;5.37;;;20.40;99.90;;;;;;5078168;28;20857;-60
2023/08/24 04:10:04;;;;;;;5.30;4.87;;;20.40;99.90;;;;;;5100319;28;20445;-58
2023/08/24 04:12:31;;;;;;;6.93;5.33;;;20.40;99.90;;;;;;5101236;28;20465;-59
2023/08/24 04:14:58;;;;;;;6.13;4.90;;;20.40;99.90;;;;;;5100444;28;20999;-57
2023/08/24 04:17:25;;;;;;;9.73;5.20;;;20.40;99.90;;;;;;5103140;28;20471;-59
2023/08/24 04:19:54;;;;;;;7.30;5.23;;;20.40;99.90;;;;;;5103654;28;20477;-58
2023/08/24 04:22:21;;;;;;;6.80;6.10;;;20.40;99.90;;;;;;5103730;28;20441;-60
2023/08/24 04:24:48;;;;;;;6.53;4.40;;;20.40;99.90;;;;;;5103499;28;20456;-58
2023/08/24 04:27:15;;;;;;;5.90;4.90;;;20.40;99.90;;;;;;5096752;28;20464;-58
2023/08/24 04:29:42;;;;;;;6.43;5.13;;;20.40;99.90;;;;;;5096529;28;20524;-59
2023/08/24 04:32:09;;;;;;;5.57;4.87;;;20.40;99.90;;;;;;5097362;28;20526;-59
2023/08/24 04:34:39;;;;;;;8.40;6.40;;;20.30;99.90;;;;;;5099655;28;20521;-59
2023/08/24 04:37:08;;;;;;;5.80;5.20;;;20.40;99.90;;;;;;5103027;28;20513;-59
2023/08/24 04:39:38;;;;;;;8.87;4.63;;;20.40;99.90;;;;;;5104109;28;20449;-60
2023/08/24 04:42:05;;;;;;;8.93;5.60;;;20.40;99.90;;;;;;5110381;28;20945;-56
2023/08/24 04:44:32;;;;;;;5.07;4.57;;;20.40;99.90;;;;;;5112346;28;20463;-60
2023/08/24 04:46:59;;;;;;;6.47;5.00;;;20.50;99.90;;;;;;5112824;28;20453;-56
2023/08/24 04:49:26;;;;;;;5.83;4.60;;;20.50;99.90;;;;;;5112981;28;20461;-60
2023/08/24 04:51:53;;;;;;;8.33;5.17;;;20.50;99.90;;;;;;5112928;28;20480;-59
2023/08/24 04:54:21;;;;;;;7.33;5.50;;;20.50;99.90;;;;;;5107423;28;20790;-60
2023/08/24 04:56:48;;;;;;;5.50;4.90;;;20.50;99.90;;;;;;5088219;28;20486;-59
2023/08/24 04:59:15;;;;;;;6.40;5.73;;;20.50;99.90;;;;;;5092684;28;20453;-59
2023/08/24 05:01:42;;;;;;;6.20;5.60;;;20.60;99.90;;;;;;5105553;28;20943;-60
2023/08/24 05:04:09;;;;;;;6.00;5.27;;;20.50;99.90;;;;;;5112125;28;20426;-59
2023/08/24 05:06:36;;;;;;;7.30;4.90;;;20.60;99.90;;;;;;5111103;28;20462;-60
2023/08/24 05:09:06;;;;;;;5.40;4.30;;;20.60;99.90;;;;;;5112407;28;20482;-58
2023/08/24 05:11:34;;;;;;;7.20;5.77;;;20.50;99.90;;;;;;5110541;28;20453;-59
2023/08/24 05:14:01;;;;;;;5.47;4.93;;;20.50;99.90;;;;;;5106914;28;20475;-60
2023/08/24 05:16:28;;;;;;;7.63;5.67;;;20.50;99.90;;;;;;5111591;28;20485;-59
2023/08/24 05:18:55;;;;;;;7.03;5.07;;;20.50;99.90;;;;;;5111680;28;20468;-54
2023/08/24 05:21:22;;;;;;;6.80;4.17;;;20.60;99.90;;;;;;5094620;28;20501;-54
2023/08/24 05:23:49;;;;;;;6.87;5.67;;;20.60;99.90;;;;;;5094811;28;20437;-55
2023/08/24 05:26:22;;;;;;;5.17;4.67;;;20.70;99.90;;;;;;5098935;28;20456;-56
2023/08/24 05:28:50;;;;;;;8.90;4.90;;;20.70;99.90;;;;;;5102656;28;20553;-56
2023/08/24 05:31:17;;;;;;;7.37;5.20;;;20.80;99.90;;;;;;5102893;28;20477;-56
2023/08/24 05:33:44;;;;;;;9.17;4.83;;;20.80;99.90;;;;;;5101662;28;20457;-58
2023/08/24 05:36:12;;;;;;;5.60;5.10;;;20.90;99.90;;;;;;5099979;28;20470;-55
2023/08/24 05:38:44;;;;;;;4.77;4.07;;;21.00;99.90;;;;;;5099857;28;20473;-53
2023/08/24 05:41:11;;;;;;;7.63;4.83;;;21.10;99.90;;;;;;5106935;28;20472;-55
2023/08/24 05:43:38;;;;;;;5.87;3.80;;;21.10;99.90;;;;;;5097638;28;20504;-53
2023/08/24 05:46:06;;;;;;;8.83;4.47;;;21.20;99.90;;;;;;5095282;28;20465;-57
2023/08/24 05:48:33;;;;;;;5.67;4.30;;;21.20;99.90;;;;;;5095298;28;20894;-58
2023/08/24 05:51:00;;;;;;;6.10;5.13;;;21.30;99.90;;;;;;5095390;28;20532;-57
2023/08/24 05:53:27;;;;;;;6.60;4.50;;;21.30;99.90;;;;;;5095338;28;20446;-58
2023/08/24 05:55:58;;;;;;;5.40;4.07;;;21.30;99.90;;;;;;5098115;28;20516;-57
2023/08/24 05:58:25;;;;;;;7.43;4.80;;;21.40;99.90;;;;;;5100320;28;20455;-58
2023/08/24 06:00:57;;;;;;;10.97;4.77;;;21.40;99.90;;;;;;5102109;28;20445;-59
2023/08/24 06:03:26;;;;;;;5.50;4.73;;;21.40;99.90;;;;;;5095365;28;20512;-56
2023/08/24 06:05:53;;;;;;;6.03;4.40;;;21.50;99.90;;;;;;5095079;28;20433;-58
2023/08/24 06:08:20;;;;;;;4.40;3.80;;;21.50;99.90;;;;;;5096246;28;20549;-58
2023/08/24 06:10:47;;;;;;;4.70;4.30;;;21.50;99.90;;;;;;5096033;28;20552;-57
2023/08/24 06:13:14;;;;;;;7.60;5.23;;;21.60;99.90;;;;;;5099261;28;20474;-58
2023/08/24 06:15:40;;;;;;;4.53;4.10;;;21.70;99.90;;;;;;5102336;28;20502;-59
2023/08/24 06:18:07;;;;;;;6.10;4.60;;;21.70;99.90;;;;;;5102196;28;20469;-55
2023/08/24 06:20:37;;;;;;;4.03;3.60;;;21.80;99.90;;;;;;5101031;28;20454;-55
2023/08/24 06:23:04;;;;;;;6.43;4.53;;;21.70;99.90;;;;;;5095527;28;20486;-55
2023/08/24 06:25:31;;;;;;;6.03;3.27;;;21.70;99.90;;;;;;5095133;28;20489;-55
2023/08/24 06:27:59;;;;;;;10.47;4.00;;;21.70;99.90;;;;;;5094279;28;20937;-55
2023/08/24 06:30:26;;;;;;;3.87;3.57;;;21.70;99.90;;;;;;5118241;28;20504;-50
2023/08/24 06:32:53;;;;;;;3.57;3.20;;;21.70;99.90;;;;;;5117178;28;20454;-50
2023/08/24 06:35:23;;;;;;;4.17;3.53;;;21.80;99.90;;;;;;5114861;28;20448;-55
2023/08/24 06:37:51;;;;;;;7.00;3.60;;;21.80;99.90;;;;;;5108815;28;20473;-57
2023/08/24 06:40:18;;;;;;;3.80;3.40;;;21.80;99.90;;;;;;5111513;28;20457;-57
2023/08/24 06:42:45;;;;;;;5.20;4.00;;;21.90;99.90;;;;;;5111771;28;20445;-56
2023/08/24 06:45:12;;;;;;;3.10;2.63;;;22.00;99.90;;;;;;5111259;28;20507;-58
2023/08/24 06:47:41;;;;;;;8.50;3.80;;;22.00;99.90;;;;;;5110498;28;20493;-59
2023/08/24 06:50:08;;;;;;;5.03;3.40;;;22.10;99.90;;;;;;5095487;28;20473;-57
2023/08/24 06:52:35;;;;;;;5.10;3.53;;;22.10;99.90;;;;;;5093811;28;20525;-58
2023/08/24 06:55:04;;;;;;;3.60;3.30;;;22.20;99.90;;;;;;5095879;28;20469;-54
2023/08/24 06:57:32;;;;;;;4.43;3.97;;;22.20;99.90;;;;;;5097427;28;20542;-59
2023/08/24 07:00:00;;;;;;;4.23;3.00;;;22.30;99.90;;;;;;5093845;28;20448;-55
2023/08/24 07:02:27;;;;;;;4.00;3.70;;;22.30;99.90;;;;;;5094302;28;20556;-59
2023/08/24 07:04:53;;;;;;;4.50;3.10;;;22.40;99.90;;;;;;5112002;28;20438;-57
2023/08/24 07:07:20;;;;;;;11.00;4.03;;;22.50;99.90;;;;;;5115272;28;20476;-59
2023/08/24 07:09:47;;;;;;;4.70;3.30;;;22.60;99.90;;;;;;5111054;28;20429;-57
2023/08/24 07:12:15;;;;;;;5.03;3.50;;;22.70;99.90;;;;;;5100963;28;20490;-58
2023/08/24 07:14:42;;;;;;;4.20;3.80;;;22.80;99.90;;;;;;5081524;28;20505;-61
2023/08/24 07:17:09;;;;;;;3.93;3.50;;;22.80;99.90;;;;;;5097669;28;20548;-60
2023/08/24 07:19:37;;;;;;;6.67;4.20;;;23.00;99.90;;;;;;5116089;28;20488;-53
2023/08/24 07:22:04;;;;;;;5.40;3.67;;;23.00;99.90;;;;;;5116819;28;20448;-59
2023/08/24 07:24:33;;;;;;;6.83;4.63;;;23.10;99.90;;;;;;5093580;28;20484;-60
2023/08/24 07:27:00;;;;;;;6.40;4.40;;;23.20;99.90;;;;;;5093736;28;20451;-59
2023/08/24 07:29:28;;;;;;;5.50;3.87;;;23.20;99.90;;;;;;5093918;28;20552;-61
2023/08/24 07:31:55;;;;;;;4.73;4.33;;;23.30;99.90;;;;;;5093947;28;20498;-59
2023/08/24 07:34:22;;;;;;;5.07;4.37;;;23.40;99.90;;;;;;5093494;28;20468;-60
2023/08/24 07:36:49;;;;;;;4.53;3.73;;;23.40;99.90;;;;;;5095949;28;20965;-59
2023/08/24 07:39:16;;;;;;;4.00;3.60;;;23.50;99.90;;;;;;5095954;28;20511;-60
2023/08/24 07:41:43;;;;;;;6.27;4.47;;;23.50;99.90;;;;;;5099626;28;21040;-59
2023/08/24 07:44:10;;;;;;;4.27;3.67;;;23.50;99.90;;;;;;5102706;28;20494;-59
2023/08/24 07:46:39;;;;;;;4.50;3.70;;;23.60;99.90;;;;;;5073788;28;20529;-60
2023/08/24 07:49:06;;;;;;;3.60;3.30;;;23.70;99.90;;;;;;5073702;28;20470;-60
2023/08/24 07:51:34;;;;;;;5.97;3.97;;;23.80;99.90;;;;;;5090332;28;20449;-59
2023/08/24 07:54:01;;;;;;;3.53;3.23;;;23.90;99.90;;;;;;5094108;28;20485;-60
2023/08/24 07:56:28;;;;;;;6.90;3.50;;;24.00;99.90;;;;;;5089373;28;20572;-60
2023/08/24 07:58:54;;;;;;;4.63;3.80;;;24.20;99.90;;;;;;5093534;28;20540;-61
2023/08/24 08:01:21;;;;;;;4.57;4.17;;;24.40;99.90;;;;;;5092748;28;20811;-62
2023/08/24 08:03:49;;;;;;;6.07;3.73;;;25.10;99.90;;;;;;5095445;28;20445;-59
2023/08/24 08:06:16;;;;;;;5.57;3.00;;;26.50;99.90;;;;;;5097582;28;20437;-63
2023/08/24 08:08:44;;;;;;;5.07;3.47;;;27.90;99.90;;;;;;5096946;28;20473;-59
2023/08/24 08:11:11;;;;;;;3.43;2.67;;;29.20;99.90;;;;;;5094108;28;20545;-61
2023/08/24 08:13:41;;;;;;;6.13;3.20;;;30.20;97.50;;;;;;5102228;28;20438;-62
2023/08/24 08:16:08;;;;;;;3.43;3.07;;;30.70;94.70;;;;;;5104194;28;20476;-61
2023/08/24 08:18:36;;;;;;;4.70;3.33;;;31.00;90.90;;;;;;5113357;28;20456;-58
2023/08/24 08:21:09;;;;;;;4.87;3.60;;;31.20;88.50;;;;;;5103517;28;20793;-60
2023/08/24 08:23:36;;;;;;;2.93;2.73;;;30.90;86.30;;;;;;5098534;28;20504;-65
2023/08/24 08:26:03;;;;;;;3.23;2.93;;;30.90;85.70;;;;;;5100634;28;20532;-63
2023/08/24 08:28:33;;;;;;;4.67;3.50;;;30.80;84.60;;;;;;5103732;28;20467;-60
2023/08/24 08:31:00;;;;;;;3.50;3.20;;;30.40;82.80;;;;;;5099816;28;20442;-60
2023/08/24 08:33:27;;;;;;;4.30;3.53;;;30.40;84.50;;;;;;5109468;28;20449;-61
2023/08/24 08:35:56;;;;;;;3.40;3.10;;;30.20;84.80;;;;;;5109611;28;20477;-58
2023/08/24 08:38:26;;;;;;;3.53;3.03;;;30.00;85.30;;;;;;5102672;28;20858;-64
2023/08/24 08:40:56;;;;;;;3.67;3.30;;;29.40;85.50;;;;;;5101924;28;20448;-63
2023/08/24 08:43:23;;;;;;;3.97;3.50;;;28.80;89.00;;;;;;5110089;28;20480;-59
2023/08/24 08:45:52;;;;;;;4.93;4.50;;;28.30;90.10;;;;;;5111046;28;20457;-62
2023/08/24 08:48:22;;;;;;;7.10;4.63;;;27.90;90.80;;;;;;5107542;28;20438;-61
2023/08/24 08:50:50;;;;;;;3.90;3.57;;;27.50;91.80;;;;;;5084879;28;20466;-62
2023/08/24 08:53:17;;;;;;;5.60;3.50;;;27.20;93.40;;;;;;5095967;28;20524;-61
2023/08/24 08:55:46;;;;;;;3.67;3.07;;;26.90;94.20;;;;;;5102579;28;20984;-63
2023/08/24 08:58:13;;;;;;;3.67;3.10;;;26.70;94.90;;;;;;5097315;28;20476;-64
2023/08/24 09:00:41;;;;;;;3.83;2.93;;;26.60;95.50;;;;;;5096275;28;20464;-63
2023/08/24 09:03:11;;;;;;;3.97;2.90;;;26.50;95.50;;;;;;5104030;28;20465;-63
2023/08/24 09:05:39;;;;;;;5.27;4.40;;;26.40;96.30;;;;;;5100583;28;20990;-63
2023/08/24 09:08:06;;;;;;;6.23;4.00;;;26.30;96.70;;;;;;5098450;28;20803;-62
2023/08/24 09:10:33;;;;;;;4.30;2.70;;;26.30;96.70;;;;;;5096685;28;20504;-61
2023/08/24 09:13:02;;;;;;;2.73;2.30;;;26.20;96.70;;;;;;5096260;28;20473;-63
2023/08/24 09:15:35;;;;;;;3.03;2.17;;;26.20;97.00;;;;;;5097657;28;20457;-63
2023/08/24 09:18:03;;;;;;;2.60;2.40;;;26.20;97.70;;;;;;5096777;28;20473;-64
2023/08/24 09:20:30;;;;;;;6.13;2.73;;;26.60;97.20;;;;;;5099055;28;20445;-64
2023/08/24 09:23:00;;;;;;;3.07;2.83;;;27.60;95.90;;;;;;5106266;28;20438;-59
2023/08/24 09:25:28;;;;;;;4.60;3.40;;;28.00;94.10;;;;;;5112188;28;20471;-55
2023/08/24 09:27:58;;;;;;;9.57;7.13;;;27.80;94.00;;;;;;5108684;28;20442;-63
2023/08/24 09:30:31;;;;;;;4.43;4.03;;;27.60;94.20;;;;;;5087945;28;20548;-64
2023/08/24 09:33:03;;;;;;;4.57;4.20;;;27.60;93.90;;;;;;5101791;28;20441;-62
2023/08/24 09:35:30;;;;;;;16.20;7.77;;;27.50;94.50;;;;;;5099865;28;20429;-63
2023/08/24 09:37:57;;;;;;;11.87;7.50;;;27.50;93.90;;;;;;5098246;28;20965;-64
2023/08/24 09:40:27;;;;;;;3.93;3.30;;;27.50;94.10;;;;;;5096756;28;20464;-65
2023/08/24 09:42:54;;;;;;;13.77;7.00;;;27.60;93.80;;;;;;5103500;28;20477;-63
2023/08/24 09:45:21;;;;;;;11.13;4.90;;;28.10;93.00;;;;;;5097724;28;20446;-60
2023/08/24 09:47:53;;;;;;;7.33;2.70;;;29.30;91.00;;;;;;5100423;28;20486;-61
2023/08/24 09:50:20;;;;;;;4.00;2.50;;;30.50;88.00;;;;;;5087301;28;20879;-61
2023/08/24 09:52:49;;;;;;;5.93;4.33;;;31.50;83.10;;;;;;5102274;28;20434;-62
2023/08/24 09:55:22;;;;;;;3.87;2.40;;;32.20;77.30;;;;;;5095380;28;20565;-63
2023/08/24 09:57:52;;;;;;;12.00;3.20;;;32.50;74.20;;;;;;5093322;28;20537;-64
2023/08/24 10:00:22;;;;;;;2.93;2.50;;;32.80;72.60;;;;;;5090379;28;20484;-63
2023/08/24 10:02:53;;;;;;;14.23;7.30;;;33.60;71.40;;;;;;5094549;28;20484;-63
2023/08/24 10:05:21;;;;;;;6.53;3.80;;;35.10;66.60;;;;;;5093816;28;22293;-63
2023/08/24 10:07:53;;;;;;;2.80;2.60;;;34.60;61.60;;;;;;5094816;28;20441;-59
2023/08/24 10:10:21;;;;;;;4.57;3.17;;;34.90;59.00;;;;;;5094723;28;20438;-64
2023/08/24 10:12:57;;;;;;;5.50;2.80;;;34.80;59.10;;;;;;5097745;28;20433;-62
2023/08/24 10:15:25;;;;;;;14.80;9.63;;;35.10;57.70;;;;;;5097482;28;20449;-64
2023/08/24 10:17:54;;;;;;;8.57;5.93;;;35.20;58.10;;;;;;5094941;28;20542;-61
2023/08/24 10:20:21;;;;;;;3.23;2.00;;;35.10;57.40;;;;;;5098485;28;20528;-62
2023/08/24 10:22:49;;;;;;;5.30;2.63;;;34.90;57.30;;;;;;5097662;28;20536;-64
2023/08/24 10:25:18;;;;;;;3.50;2.20;;;34.90;56.80;;;;;;5091885;28;20469;-63
2023/08/24 10:27:47;;;;;;;3.37;2.07;;;34.80;57.00;;;;;;5094309;28;21221;-64
2023/08/24 10:30:15;;;;;;;5.27;2.20;;;34.40;57.30;;;;;;5094399;28;20470;-63
2023/08/24 10:32:45;;;;;;;2.40;2.20;;;34.10;57.30;;;;;;5093650;28;20526;-63
2023/08/24 10:35:15;;;;;;;2.33;2.13;;;34.10;57.80;;;;;;5094744;28;20452;-63
2023/08/24 10:37:45;;;;;;;5.00;2.20;;;34.00;58.30;;;;;;5094864;28;20480;-62
2023/08/24 10:40:12;;;;;;;2.13;2.03;;;33.90;59.20;;;;;;5091925;28;20636;-64
2023/08/24 10:42:46;;;;;;;3.53;2.20;;;33.70;59.70;;;;;;5079858;28;20450;-62
2023/08/24 10:45:14;;;;;;;5.00;2.53;;;33.50;59.60;;;;;;5086539;28;20461;-63
2023/08/24 10:47:46;;;;;;;3.30;2.53;;;33.20;59.90;;;;;;5098656;28;20602;-62
2023/08/24 10:50:15;;;;;;;2.90;2.67;;;33.10;59.80;;;;;;5111953;28;20517;-63
2023/08/24 10:52:45;;;;;;;5.80;2.90;;;33.10;61.30;;;;;;5114503;28;20469;-63
2023/08/24 10:55:26;;;;;;;2.90;2.57;;;32.90;60.20;;;;;;5083394;28;20925;-62
2023/08/24 10:57:58;;;;;;;4.40;2.50;;;32.80;61.60;;;;;;5099757;28;20477;-61
2023/08/24 11:00:28;;;;;;;2.60;2.40;;;32.50;61.80;;;;;;5085812;28;20541;-62
2023/08/24 11:02:56;;;;;;;4.37;3.10;;;32.00;63.00;;;;;;5085705;28;20474;-62
2023/08/24 11:05:27;;;;;;;7.83;3.43;;;31.90;63.50;;;;;;5085255;28;20540;-64
2023/08/24 11:07:56;;;;;;;3.10;2.80;;;31.40;64.60;;;;;;5091845;28;20960;-62
2023/08/24 11:10:25;;;;;;;3.47;3.17;;;31.20;65.70;;;;;;5094214;28;20950;-61
2023/08/24 11:13:12;;;;;;;4.03;3.40;;;31.20;66.10;;;;;;5091665;28;20461;-59
2023/08/24 11:15:43;;;;;;;5.40;2.87;;;31.40;66.80;;;;;;5091708;28;20473;-63
2023/08/24 11:18:15;;;;;;;3.97;3.10;;;31.50;65.50;;;;;;5092535;28;20557;-62
2023/08/24 11:20:45;;;;;;;4.73;4.30;;;31.50;64.80;;;;;;5093249;28;20461;-63
2023/08/24 11:23:13;;;;;;;3.70;2.70;;;31.50;65.40;;;;;;5093458;28;20499;-61
2023/08/24 11:25:40;;;;;;;2.93;2.73;;;31.50;66.00;;;;;;5093042;28;20786;-65
2023/08/24 11:28:07;;;;;;;5.67;3.30;;;31.40;66.10;;;;;;5093773;28;20513;-63
2023/08/24 11:30:35;;;;;;;4.17;3.30;;;31.10;66.20;;;;;;5094179;28;20493;-65
2023/08/24 11:33:03;;;;;;;3.63;3.33;;;30.70;65.70;;;;;;5094050;28;20453;-62
2023/08/24 11:35:30;;;;;;;3.27;3.03;;;30.70;66.20;;;;;;5094689;28;20452;-63
2023/08/24 11:37:58;;;;;;;4.43;3.20;;;30.60;67.40;;;;;;5096402;28;20520;-62
2023/08/24 11:40:26;;;;;;;5.20;3.20;;;30.40;68.80;;;;;;5097781;28;20540;-63
2023/08/24 11:42:55;;;;;;;5.73;3.50;;;30.30;68.40;;;;;;5097381;28;20450;-65
2023/08/24 11:45:23;;;;;;;3.97;3.17;;;30.30;68.00;;;;;;5097813;28;20800;-63
2023/08/24 11:47:50;;;;;;;5.40;3.50;;;30.20;69.10;;;;;;5097752;28;20484;-63
2023/08/24 11:50:18;;;;;;;5.17;3.80;;;30.20;68.80;;;;;;5097953;28;20433;-64
2023/08/24 11:52:44;;;;;;;4.10;3.80;;;30.20;69.90;;;;;;5098428;28;20508;-63
2023/08/24 11:55:13;;;;;;;3.00;2.80;;;30.20;68.90;;;;;;5097649;28;20898;-63
2023/08/24 11:57:40;;;;;;;6.20;4.23;;;30.20;69.70;;;;;;5097405;28;20961;-63
2023/08/24 12:00:08;;;;;;;4.47;3.57;;;30.10;69.40;;;;;;5097471;28;20949;-59
2023/08/24 12:02:37;;;;;;;4.87;3.47;;;29.80;69.50;;;;;;5080037;28;20545;-50
2023/08/24 12:05:08;;;;;;;6.80;3.50;;;29.70;70.70;;;;;;5101168;28;20419;-51
2023/08/24 12:07:38;;;;;;;5.30;3.00;;;29.60;70.50;;;;;;5077365;28;20476;-63
2023/08/24 12:10:06;;;;;;;5.37;3.90;;;29.60;71.10;;;;;;5078418;28;20450;-63
2023/08/24 12:12:34;;;;;;;7.90;5.67;;;29.70;71.70;;;;;;5080757;28;20561;-62
2023/08/24 12:15:01;;;;;;;3.30;2.70;;;29.70;70.10;;;;;;5092311;28;20822;-62
2023/08/24 12:17:28;;;;;;;6.07;2.83;;;29.70;70.10;;;;;;5099885;28;20469;-62
2023/08/24 12:20:00;;;;;;;3.23;2.87;;;29.70;71.20;;;;;;5101875;28;20469;-61
2023/08/24 12:22:27;;;;;;;4.70;3.40;;;29.60;71.90;;;;;;5101502;28;20491;-61
2023/08/24 12:24:56;;;;;;;3.43;3.13;;;29.60;71.70;;;;;;5102907;28;21915;-62
2023/08/24 12:27:24;;;;;;;4.07;3.20;;;29.60;72.50;;;;;;5103593;28;20437;-59
2023/08/24 12:30:02;;;;;;;4.23;3.40;;;29.60;71.70;;;;;;5103502;28;20510;-62
2023/08/24 12:32:43;;;;;;;5.67;3.30;;;29.50;71.60;;;;;;5100653;28;20471;-62
2023/08/24 12:35:10;;;;;;;3.90;3.20;;;29.40;72.90;;;;;;5098643;28;20508;-62
2023/08/24 12:37:37;;;;;;;4.00;3.17;;;29.20;72.40;;;;;;5083094;28;20939;-64
2023/08/24 12:40:05;;;;;;;3.90;3.30;;;29.20;74.10;;;;;;5076351;28;20501;-61
2023/08/24 12:42:32;;;;;;;3.63;3.33;;;29.20;75.30;;;;;;5087191;28;20460;-61
2023/08/24 12:45:00;;;;;;;4.00;3.23;;;29.30;73.90;;;;;;5102705;28;20473;-61
2023/08/24 12:47:27;;;;;;;3.47;3.17;;;29.40;73.70;;;;;;5105774;28;20981;-60
2023/08/24 12:49:55;;;;;;;3.27;2.97;;;29.50;73.60;;;;;;5103122;28;20441;-62